Time;durP1;ratioP1;P1;durP2;ratioP2;P2;SDS_P1;SDS_P2;PMS_P1;PMS_P2;Temp;Humidity;BMP_temperature;BMP_pressure;BME280_temperature;BME280_humidity;BME280_pressure;Samples;Min_cycle;Max_cycle;Signal;HPM_P1;HPM_P2
2023/12/10 00:00:58;;;;;;;33.20;5.90;;;10.20;99.90;;;;;;5056025;28;20188;-85
2023/12/10 00:03:23;;;;;;;32.97;4.10;;;10.30;99.90;;;;;;5055567;28;20173;-85
2023/12/10 00:05:49;;;;;;;45.63;4.40;;;10.20;99.90;;;;;;5056274;28;20173;-85
2023/12/10 00:08:15;;;;;;;36.67;4.20;;;10.20;99.90;;;;;;5056900;28;20168;-84
2023/12/10 00:10:40;;;;;;;38.27;3.73;;;10.20;99.90;;;;;;5056608;28;20452;-85
2023/12/10 00:13:09;;;;;;;36.13;4.20;;;10.20;99.90;;;;;;5056181;28;20530;-85
2023/12/10 00:15:36;;;;;;;27.20;3.70;;;10.20;99.90;;;;;;5056493;28;20189;-84
2023/12/10 00:18:01;;;;;;;33.05;5.20;;;10.20;99.90;;;;;;5039180;28;20622;-85
2023/12/10 00:20:27;;;;;;;32.63;3.73;;;10.20;99.90;;;;;;5056845;28;20179;-85
2023/12/10 00:22:53;;;;;;;32.40;3.97;;;10.20;99.90;;;;;;5058099;28;20191;-85
2023/12/10 00:25:19;;;;;;;41.37;5.50;;;10.20;99.90;;;;;;5061458;28;20283;-85
2023/12/10 00:27:45;;;;;;;29.63;5.20;;;10.20;99.90;;;;;;5060954;28;20165;-84
2023/12/10 00:30:11;;;;;;;26.27;4.30;;;10.20;99.90;;;;;;5060939;28;20164;-84
2023/12/10 00:32:36;;;;;;;35.03;4.72;;;10.20;99.90;;;;;;5060116;28;20589;-85
2023/12/10 00:35:03;;;;;;;34.23;4.80;;;10.30;99.90;;;;;;5060466;28;20212;-84
2023/12/10 00:37:29;;;;;;;34.60;4.72;;;10.30;99.90;;;;;;5061122;28;20234;-84
2023/12/10 00:39:55;;;;;;;35.13;4.20;;;10.30;99.90;;;;;;5042770;28;20701;-84
2023/12/10 00:42:21;;;;;;;35.10;6.00;;;10.30;99.90;;;;;;5043176;28;20180;-84
2023/12/10 00:44:47;;;;;;;31.03;4.87;;;10.30;99.90;;;;;;5060642;28;20193;-84
2023/12/10 00:47:12;;;;;;;24.30;3.23;;;10.30;99.90;;;;;;5060880;28;20463;-85
2023/12/10 00:49:38;;;;;;;31.23;4.80;;;10.30;99.90;;;;;;5060823;28;20518;-86
2023/12/10 00:52:04;;;;;;;30.33;4.43;;;10.30;99.90;;;;;;5060128;28;20165;-84
2023/12/10 00:54:32;;;;;;;27.80;4.30;;;10.30;99.90;;;;;;5041990;28;20209;-84
2023/12/10 00:57:01;;;;;;;29.10;4.57;;;10.30;99.90;;;;;;5059087;28;20239;-85
2023/12/10 00:59:27;;;;;;;28.33;5.07;;;10.30;99.90;;;;;;5060169;28;20590;-83
2023/12/10 01:01:52;;;;;;;33.07;4.90;;;10.30;99.90;;;;;;5060774;28;20168;-84
2023/12/10 01:04:18;;;;;;;37.50;4.90;;;10.30;99.90;;;;;;5059850;28;20200;-85
2023/12/10 01:06:46;;;;;;;26.52;4.00;;;10.30;99.90;;;;;;5060526;28;20211;-83
2023/12/10 01:09:15;;;;;;;36.45;4.38;;;10.30;99.90;;;;;;5060733;28;20224;-85
2023/12/10 01:11:41;;;;;;;34.80;4.47;;;10.30;99.90;;;;;;5060311;28;20227;-84
2023/12/10 01:14:06;;;;;;;31.90;4.55;;;10.30;99.90;;;;;;5060741;28;20701;-84
2023/12/10 01:16:32;;;;;;;37.37;4.90;;;10.30;99.90;;;;;;5060212;28;20169;-85
2023/12/10 01:18:58;;;;;;;37.10;4.80;;;10.30;99.90;;;;;;5060201;28;20180;-84
2023/12/10 01:21:24;;;;;;;35.73;4.13;;;10.30;99.90;;;;;;5060369;28;20201;-84
2023/12/10 01:23:54;;;;;;;29.80;3.83;;;10.30;99.90;;;;;;5059643;28;20967;-85
2023/12/10 01:26:19;;;;;;;38.88;5.57;;;10.30;99.90;;;;;;5202352;22;20220;-81
2023/12/10 01:28:45;;;;;;;30.80;4.20;;;10.30;99.90;;;;;;5276735;22;20221;-85
2023/12/10 01:31:11;;;;;;;32.23;4.53;;;10.30;99.90;;;;;;5060287;28;20392;-85
2023/12/10 01:33:37;;;;;;;36.77;5.87;;;10.30;99.90;;;;;;5040609;28;20169;-85
2023/12/10 01:36:03;;;;;;;27.97;3.63;;;10.30;99.90;;;;;;5059739;28;20690;-85
2023/12/10 01:38:28;;;;;;;30.00;4.17;;;10.30;99.90;;;;;;5058522;28;20392;-85
2023/12/10 01:40:54;;;;;;;34.33;4.50;;;10.30;99.90;;;;;;5058995;28;20387;-84
2023/12/10 01:43:20;;;;;;;28.40;4.20;;;10.30;99.90;;;;;;5059800;28;20188;-85
2023/12/10 01:45:53;;;;;;;29.10;5.17;;;10.30;99.90;;;;;;5058595;28;20260;-83
2023/12/10 01:48:20;;;;;;;27.20;3.75;;;10.30;99.90;;;;;;5058893;28;20170;-83
2023/12/10 01:50:46;;;;;;;28.85;4.15;;;10.30;99.90;;;;;;5058874;28;20165;-85
2023/12/10 01:53:13;;;;;;;25.95;3.55;;;10.30;99.90;;;;;;5059645;28;20646;-84
2023/12/10 01:55:41;;;;;;;31.90;3.42;;;10.30;99.90;;;;;;5058582;28;20273;-83
2023/12/10 01:58:07;;;;;;;27.52;3.08;;;10.30;99.90;;;;;;5059294;28;20185;-84
2023/12/10 02:00:38;;;;;;;26.80;3.40;;;10.30;99.90;;;;;;5059573;28;20251;-84
2023/12/10 02:03:04;;;;;;;39.78;4.25;;;10.30;99.90;;;;;;5059904;28;20143;-83
2023/12/10 02:05:30;;;;;;;30.23;3.05;;;10.30;99.90;;;;;;5058798;28;20784;-85
2023/12/10 02:07:56;;;;;;;23.93;3.43;;;10.30;99.90;;;;;;5041036;28;20181;-84
2023/12/10 02:10:21;;;;;;;28.57;4.70;;;10.30;99.90;;;;;;5058478;28;20173;-85
2023/12/10 02:12:48;;;;;;;27.97;3.60;;;10.30;99.90;;;;;;5058899;28;20745;-83
2023/12/10 02:15:21;;;;;;;31.30;3.55;;;10.30;99.90;;;;;;5059408;28;20181;-85
2023/12/10 02:17:48;;;;;;;25.92;3.13;;;10.30;99.90;;;;;;5058937;28;20168;-85
2023/12/10 02:20:18;;;;;;;29.40;3.22;;;10.30;99.90;;;;;;5058563;28;20223;-85
2023/12/10 02:22:57;;;;;;;30.77;3.53;;;10.30;99.90;;;;;;5040632;28;20169;-85
2023/12/10 02:25:39;;;;;;;28.98;3.78;;;10.30;99.90;;;;;;5058895;28;20197;-85
2023/12/10 02:28:09;;;;;;;30.98;3.65;;;10.20;99.90;;;;;;5041254;28;20188;-84
2023/12/10 02:30:35;;;;;;;24.88;2.50;;;10.30;99.10;;;;;;5041620;28;20581;-82
2023/12/10 02:33:01;;;;;;;32.22;3.10;;;10.30;98.70;;;;;;5058814;28;20183;-85
2023/12/10 02:35:27;;;;;;;32.78;4.32;;;10.30;98.30;;;;;;5058896;28;20181;-85
2023/12/10 02:37:53;;;;;;;23.02;2.35;;;10.30;98.20;;;;;;5040565;28;20200;-85
2023/12/10 02:40:20;;;;;;;27.92;3.40;;;10.30;97.70;;;;;;5040012;28;20169;-84
2023/12/10 02:42:47;;;;;;;30.13;3.42;;;10.20;96.00;;;;;;5041130;28;20260;-83
2023/12/10 02:45:14;;;;;;;23.77;2.72;;;10.20;96.20;;;;;;5057406;28;20200;-85
2023/12/10 02:47:43;;;;;;;25.10;3.72;;;10.20;96.50;;;;;;5057938;28;20184;-85
2023/12/10 02:50:09;;;;;;;34.30;4.53;;;10.20;95.40;;;;;;5058391;28;20172;-85
2023/12/10 02:52:38;;;;;;;31.58;3.70;;;10.10;93.50;;;;;;5136260;22;20188;-81
2023/12/10 02:55:05;;;;;;;31.48;3.30;;;10.10;90.30;;;;;;5345573;22;20220;-84
2023/12/10 02:57:31;;;;;;;25.13;3.05;;;10.20;92.90;;;;;;5058533;28;20615;-84
2023/12/10 02:59:57;;;;;;;28.03;2.90;;;10.10;92.30;;;;;;5057919;28;20165;-84
2023/12/10 03:02:22;;;;;;;31.97;3.10;;;10.10;92.90;;;;;;5057306;28;20491;-85
2023/12/10 03:04:48;;;;;;;24.93;3.40;;;10.10;93.90;;;;;;5039432;28;20457;-82
2023/12/10 03:07:14;;;;;;;29.20;3.50;;;10.10;93.40;;;;;;5058007;28;20255;-83
2023/12/10 03:09:40;;;;;;;36.57;3.73;;;10.10;90.70;;;;;;5057987;28;20165;-83
2023/12/10 03:12:06;;;;;;;26.83;3.80;;;10.10;89.40;;;;;;5057566;28;20172;-83
2023/12/10 03:14:31;;;;;;;26.85;4.53;;;10.10;90.30;;;;;;5039919;28;20266;-83
2023/12/10 03:16:57;;;;;;;26.20;3.10;;;10.10;89.40;;;;;;5040037;28;20173;-83
2023/12/10 03:19:23;;;;;;;29.57;3.20;;;10.20;86.10;;;;;;5058484;28;20681;-84
2023/12/10 03:21:48;;;;;;;24.40;2.70;;;10.20;90.70;;;;;;5039561;28;20260;-83
2023/12/10 03:24:14;;;;;;;26.70;3.53;;;10.20;93.60;;;;;;5039596;28;20239;-84
2023/12/10 03:26:41;;;;;;;32.83;3.78;;;10.10;97.70;;;;;;5056062;28;20193;-83
2023/12/10 03:29:07;;;;;;;25.30;3.17;;;10.10;99.90;;;;;;5056911;28;20221;-82
2023/12/10 03:31:33;;;;;;;27.13;3.60;;;10.00;99.90;;;;;;5057217;28;20165;-83
2023/12/10 03:33:58;;;;;;;27.17;3.23;;;10.00;99.90;;;;;;5056584;28;20191;-82
2023/12/10 03:36:24;;;;;;;35.93;3.83;;;9.90;99.90;;;;;;5056651;28;20169;-83
2023/12/10 03:38:50;;;;;;;29.17;3.03;;;9.90;99.90;;;;;;5057453;28;20169;-82
2023/12/10 03:41:15;;;;;;;31.00;3.73;;;9.90;99.90;;;;;;5057846;28;20306;-81
2023/12/10 03:43:41;;;;;;;25.33;4.10;;;9.90;99.90;;;;;;5057776;28;20193;-81
2023/12/10 03:46:07;;;;;;;31.57;3.57;;;9.90;99.90;;;;;;5058301;28;20169;-81
2023/12/10 03:48:32;;;;;;;29.07;2.90;;;9.90;99.90;;;;;;5058164;28;20642;-81
2023/12/10 03:50:58;;;;;;;23.87;3.03;;;9.90;99.90;;;;;;5058345;28;20161;-83
2023/12/10 03:53:24;;;;;;;25.97;2.83;;;9.90;99.90;;;;;;5040232;28;20260;-81
2023/12/10 03:55:49;;;;;;;31.30;4.13;;;9.90;99.90;;;;;;5058957;28;20191;-82
2023/12/10 03:58:15;;;;;;;29.43;3.77;;;9.90;99.90;;;;;;5058033;28;20214;-83
2023/12/10 04:00:42;;;;;;;30.13;3.27;;;10.00;99.90;;;;;;5059274;28;20161;-81
2023/12/10 04:03:08;;;;;;;34.13;4.07;;;9.90;99.90;;;;;;5058472;28;20158;-81
2023/12/10 04:05:34;;;;;;;26.13;3.10;;;9.90;99.90;;;;;;5058092;28;20208;-82
2023/12/10 04:07:59;;;;;;;32.13;4.10;;;9.80;99.90;;;;;;5058071;28;20165;-82
2023/12/10 04:10:25;;;;;;;25.97;3.27;;;9.80;99.90;;;;;;5056469;28;20240;-83
2023/12/10 04:12:51;;;;;;;23.73;3.17;;;9.80;99.90;;;;;;5056893;28;20254;-83
2023/12/10 04:15:17;;;;;;;25.63;3.70;;;9.70;99.90;;;;;;5057335;28;20586;-83
2023/12/10 04:17:43;;;;;;;33.47;3.03;;;9.70;99.90;;;;;;5057099;28;20169;-82
2023/12/10 04:20:10;;;;;;;30.80;3.07;;;9.60;99.90;;;;;;5056796;28;20204;-83
2023/12/10 04:22:36;;;;;;;29.35;3.72;;;9.50;99.90;;;;;;5057652;28;20404;-82
2023/12/10 04:25:02;;;;;;;27.50;4.00;;;9.50;99.90;;;;;;5039001;28;20751;-82
2023/12/10 04:27:27;;;;;;;31.73;3.53;;;9.50;99.90;;;;;;5057371;28;20184;-80
2023/12/10 04:29:56;;;;;;;38.27;3.90;;;9.50;99.90;;;;;;5058302;28;20403;-83
2023/12/10 04:32:22;;;;;;;27.98;3.20;;;9.50;99.90;;;;;;5058273;28;20526;-81
2023/12/10 04:34:47;;;;;;;28.97;2.23;;;9.50;99.90;;;;;;5236614;22;20212;-80
2023/12/10 04:37:13;;;;;;;36.67;3.50;;;9.50;99.90;;;;;;5136980;22;20308;-83
2023/12/10 04:39:39;;;;;;;36.43;4.20;;;9.50;99.90;;;;;;5055146;28;20538;-83
2023/12/10 04:42:05;;;;;;;27.53;3.10;;;9.50;99.90;;;;;;5036895;28;20177;-82
2023/12/10 04:44:30;;;;;;;30.47;4.03;;;9.50;99.90;;;;;;5054913;28;20205;-83
2023/12/10 04:46:56;;;;;;;32.37;4.37;;;9.50;99.90;;;;;;5037152;28;20253;-83
2023/12/10 04:49:22;;;;;;;33.47;3.37;;;9.50;99.90;;;;;;5054681;28;20161;-82
2023/12/10 04:51:47;;;;;;;35.03;3.90;;;9.50;99.90;;;;;;5054611;28;20183;-83
2023/12/10 04:54:16;;;;;;;28.10;3.27;;;9.50;99.90;;;;;;5054032;28;20336;-82
2023/12/10 04:56:42;;;;;;;26.45;2.90;;;9.60;99.90;;;;;;5036396;28;20180;-83
2023/12/10 04:59:08;;;;;;;27.60;3.20;;;9.60;99.90;;;;;;5053642;28;20638;-84
2023/12/10 05:01:33;;;;;;;34.20;4.43;;;9.70;99.90;;;;;;5053604;28;20406;-84
2023/12/10 05:03:59;;;;;;;29.40;3.10;;;9.70;99.90;;;;;;5035468;28;20689;-81
2023/12/10 05:06:25;;;;;;;28.60;2.97;;;9.70;99.90;;;;;;5054090;28;20268;-84
2023/12/10 05:08:50;;;;;;;25.90;3.43;;;9.80;99.90;;;;;;5053872;28;20205;-82
2023/12/10 05:11:16;;;;;;;28.23;3.40;;;9.80;99.90;;;;;;5039395;28;20169;-82
2023/12/10 05:13:41;;;;;;;32.20;4.00;;;9.90;99.90;;;;;;5057851;28;20248;-84
2023/12/10 05:16:07;;;;;;;25.90;3.27;;;9.90;99.90;;;;;;5057768;28;20173;-83
2023/12/10 05:18:33;;;;;;;27.87;4.23;;;9.90;99.90;;;;;;5058017;28;20220;-83
2023/12/10 05:20:59;;;;;;;25.70;3.33;;;9.90;99.90;;;;;;5057402;28;20435;-84
2023/12/10 05:23:24;;;;;;;40.47;3.67;;;9.90;99.90;;;;;;5058255;28;20165;-82
2023/12/10 05:25:50;;;;;;;28.07;3.67;;;10.00;97.80;;;;;;5058199;28;20188;-84
2023/12/10 05:28:16;;;;;;;33.00;4.43;;;10.00;98.80;;;;;;5058085;28;20161;-85
2023/12/10 05:30:42;;;;;;;30.50;3.80;;;10.00;98.40;;;;;;5058075;28;20641;-84
2023/12/10 05:33:07;;;;;;;37.30;3.80;;;10.00;98.40;;;;;;5057423;28;20169;-84
2023/12/10 05:35:34;;;;;;;30.43;4.70;;;10.00;95.60;;;;;;5039581;28;20200;-84
2023/12/10 05:38:03;;;;;;;33.40;4.43;;;10.00;94.80;;;;;;5057818;28;20145;-84
2023/12/10 05:40:29;;;;;;;30.08;3.75;;;10.00;94.20;;;;;;5058093;28;20181;-84
2023/12/10 05:42:55;;;;;;;27.93;3.80;;;10.00;94.00;;;;;;5058205;28;20177;-84
2023/12/10 05:45:20;;;;;;;24.87;2.33;;;10.10;92.30;;;;;;5057051;28;20200;-84
2023/12/10 05:47:46;;;;;;;29.17;3.13;;;10.10;91.50;;;;;;5057499;28;20161;-83
2023/12/10 05:50:12;;;;;;;23.50;3.57;;;10.00;90.90;;;;;;5057539;28;20161;-81
2023/12/10 05:52:37;;;;;;;21.77;2.80;;;10.00;90.60;;;;;;5057671;28;20165;-84
2023/12/10 05:55:04;;;;;;;25.40;3.80;;;10.10;75.50;;;;;;5057220;28;20185;-84
2023/12/10 05:57:32;;;;;;;28.67;3.30;;;10.10;89.90;;;;;;5056811;28;20172;-83
2023/12/10 05:59:58;;;;;;;31.38;3.55;;;10.10;90.00;;;;;;5056882;28;20188;-84
2023/12/10 06:02:24;;;;;;;31.93;3.13;;;10.10;89.10;;;;;;5056500;28;20597;-85
2023/12/10 06:04:49;;;;;;;25.67;3.03;;;10.10;93.10;;;;;;5056845;28;20201;-82
2023/12/10 06:07:15;;;;;;;37.40;4.63;;;10.10;91.30;;;;;;5057198;28;20237;-84
2023/12/10 06:09:41;;;;;;;32.00;3.80;;;10.10;93.40;;;;;;5057346;28;20758;-84
2023/12/10 06:12:06;;;;;;;22.90;2.60;;;10.10;90.60;;;;;;5056653;28;20211;-81
2023/12/10 06:14:32;;;;;;;25.50;3.50;;;10.10;90.90;;;;;;5056946;28;20669;-84
2023/12/10 06:16:58;;;;;;;25.30;3.83;;;10.10;91.00;;;;;;5056538;28;20173;-81
2023/12/10 06:19:23;;;;;;;24.33;3.10;;;10.10;91.90;;;;;;5056773;28;20307;-84
2023/12/10 06:21:49;;;;;;;28.70;3.80;;;10.10;90.10;;;;;;5056207;28;20165;-84
2023/12/10 06:24:15;;;;;;;23.97;2.70;;;10.10;90.00;;;;;;5056362;28;20204;-84
2023/12/10 06:26:41;;;;;;;31.00;3.70;;;10.10;92.70;;;;;;5056233;28;20157;-85
2023/12/10 06:29:06;;;;;;;26.30;2.60;;;10.10;91.60;;;;;;5056234;28;20159;-81
2023/12/10 06:31:32;;;;;;;25.37;3.13;;;10.10;92.70;;;;;;5056525;28;20622;-83
2023/12/10 06:33:58;;;;;;;26.00;3.77;;;10.10;91.30;;;;;;5056548;28;20192;-84
2023/12/10 06:36:23;;;;;;;27.63;4.30;;;10.10;90.90;;;;;;5056630;28;20180;-84
2023/12/10 06:38:49;;;;;;;25.30;3.10;;;10.20;86.20;;;;;;5056640;28;20220;-84
2023/12/10 06:41:15;;;;;;;33.13;2.90;;;10.20;85.90;;;;;;5056543;28;20252;-82
2023/12/10 06:43:41;;;;;;;37.17;3.35;;;10.20;89.70;;;;;;5056189;28;20604;-82
2023/12/10 06:46:06;;;;;;;26.93;3.37;;;10.20;90.80;;;;;;5039265;28;20188;-85
2023/12/10 06:48:33;;;;;;;36.07;3.97;;;10.20;90.80;;;;;;5038590;28;20166;-84
2023/12/10 06:51:01;;;;;;;27.60;2.85;;;10.20;93.10;;;;;;5055776;28;20673;-84
2023/12/10 06:53:26;;;;;;;30.23;3.15;;;10.20;92.00;;;;;;5056348;28;20173;-83
2023/12/10 06:55:52;;;;;;;40.43;4.60;;;10.20;86.90;;;;;;5208274;22;20224;-81
2023/12/10 06:58:18;;;;;;;25.93;3.87;;;10.20;90.70;;;;;;5227386;22;20236;-85
2023/12/10 07:00:43;;;;;;;28.10;3.57;;;10.20;90.40;;;;;;5038234;28;20170;-82
2023/12/10 07:03:12;;;;;;;29.93;3.00;;;10.20;84.10;;;;;;5055166;28;20161;-80
2023/12/10 07:05:38;;;;;;;23.02;2.90;;;10.20;89.20;;;;;;5054610;28;20193;-81
2023/12/10 07:08:04;;;;;;;31.40;3.63;;;10.20;90.60;;;;;;5054809;28;20222;-83
2023/12/10 07:10:29;;;;;;;27.23;2.80;;;10.20;89.20;;;;;;5055556;28;20173;-83
2023/12/10 07:12:55;;;;;;;23.67;3.23;;;10.20;91.00;;;;;;5054995;28;20207;-83
2023/12/10 07:15:21;;;;;;;29.03;3.60;;;10.20;92.50;;;;;;5054965;28;20573;-83
2023/12/10 07:17:47;;;;;;;36.77;3.37;;;10.20;91.30;;;;;;5054859;28;20172;-83
2023/12/10 07:20:15;;;;;;;25.23;3.40;;;10.20;95.40;;;;;;5055109;28;20166;-83
2023/12/10 07:22:41;;;;;;;28.08;3.25;;;10.20;94.50;;;;;;5054890;28;20732;-81
2023/12/10 07:25:10;;;;;;;33.13;4.17;;;10.20;95.10;;;;;;5054820;28;20197;-80
2023/12/10 07:27:36;;;;;;;25.10;3.20;;;10.20;93.60;;;;;;5055701;28;20169;-81
2023/12/10 07:30:02;;;;;;;24.17;2.33;;;10.20;93.30;;;;;;5054944;28;20165;-79
2023/12/10 07:32:27;;;;;;;29.33;2.90;;;10.20;94.50;;;;;;5054209;28;20551;-79
2023/12/10 07:34:53;;;;;;;31.17;3.70;;;10.30;94.40;;;;;;5054571;28;20434;-81
2023/12/10 07:37:19;;;;;;;30.63;3.50;;;10.20;93.00;;;;;;5055238;28;20630;-81
2023/12/10 07:39:48;;;;;;;24.67;4.50;;;10.20;94.90;;;;;;5055235;28;20165;-81
2023/12/10 07:42:14;;;;;;;29.25;3.28;;;10.20;95.00;;;;;;5054213;28;20176;-79
2023/12/10 07:44:39;;;;;;;24.90;2.40;;;10.20;95.30;;;;;;5054194;28;20573;-81
2023/12/10 07:47:05;;;;;;;26.90;3.67;;;10.20;96.10;;;;;;5125233;22;20153;-80
2023/12/10 07:49:32;;;;;;;25.37;3.07;;;10.20;95.00;;;;;;5038418;28;20530;-81
2023/12/10 07:51:57;;;;;;;26.90;2.88;;;10.20;93.00;;;;;;5055847;28;20142;-83
2023/12/10 07:54:23;;;;;;;26.43;3.50;;;10.20;95.50;;;;;;5056262;28;20330;-82
2023/12/10 07:56:49;;;;;;;26.67;3.17;;;10.20;96.00;;;;;;5056560;28;20165;-83
2023/12/10 07:59:14;;;;;;;30.60;3.67;;;10.20;94.40;;;;;;5056003;28;20869;-82
2023/12/10 08:01:40;;;;;;;28.40;3.77;;;10.20;94.50;;;;;;5056252;28;20192;-83
2023/12/10 08:04:06;;;;;;;36.60;2.83;;;10.20;96.00;;;;;;5055581;28;20205;-82
2023/12/10 08:06:32;;;;;;;26.00;2.60;;;10.20;97.10;;;;;;5056366;28;20157;-81
2023/12/10 08:08:58;;;;;;;25.90;3.60;;;10.20;97.40;;;;;;5056265;28;20211;-82
2023/12/10 08:11:23;;;;;;;32.77;3.67;;;10.20;96.30;;;;;;5038568;28;20172;-82
2023/12/10 08:13:51;;;;;;;24.50;3.13;;;10.20;94.70;;;;;;5056371;28;20208;-82
2023/12/10 08:16:17;;;;;;;28.95;3.15;;;10.20;92.70;;;;;;5056806;28;20172;-82
2023/12/10 08:18:43;;;;;;;25.48;2.92;;;10.20;93.90;;;;;;5056249;28;20252;-82
2023/12/10 08:21:08;;;;;;;24.03;3.10;;;10.20;94.80;;;;;;5056936;28;20189;-82
2023/12/10 08:23:34;;;;;;;30.57;4.60;;;10.20;93.80;;;;;;5056379;28;20546;-81
2023/12/10 08:26:00;;;;;;;24.03;2.60;;;10.20;94.60;;;;;;5055935;28;20161;-81
2023/12/10 08:28:26;;;;;;;30.73;3.60;;;10.20;95.40;;;;;;5056474;28;20167;-81
2023/12/10 08:30:52;;;;;;;23.63;2.80;;;10.20;92.90;;;;;;5056132;28;20166;-80
2023/12/10 08:33:18;;;;;;;27.85;3.00;;;10.20;94.20;;;;;;5056964;28;20161;-81
2023/12/10 08:35:44;;;;;;;31.40;3.30;;;10.20;93.40;;;;;;5057473;28;20273;-82
2023/12/10 08:38:09;;;;;;;30.00;4.00;;;10.20;93.40;;;;;;5038828;28;20260;-82
2023/12/10 08:40:35;;;;;;;23.70;3.10;;;10.20;94.90;;;;;;5057212;28;20180;-82
2023/12/10 08:43:01;;;;;;;31.33;3.17;;;10.20;93.70;;;;;;5058012;28;20403;-82
2023/12/10 08:45:30;;;;;;;32.47;3.47;;;10.30;94.30;;;;;;5060252;28;20224;-80
2023/12/10 08:47:56;;;;;;;27.52;3.38;;;10.30;94.00;;;;;;5059950;28;20259;-82
2023/12/10 08:50:21;;;;;;;26.13;3.63;;;10.30;95.10;;;;;;5060189;28;20192;-82
2023/12/10 08:52:47;;;;;;;25.40;3.27;;;10.30;96.20;;;;;;5060072;28;20153;-82
2023/12/10 08:55:13;;;;;;;33.10;4.17;;;10.30;97.20;;;;;;5061003;28;20188;-81
2023/12/10 08:57:39;;;;;;;28.47;4.37;;;10.30;96.40;;;;;;5060956;28;20165;-81
2023/12/10 09:00:05;;;;;;;28.97;3.67;;;10.30;96.10;;;;;;5059867;28;20183;-81
2023/12/10 09:02:31;;;;;;;29.40;3.80;;;10.30;97.20;;;;;;5059395;28;20169;-82
2023/12/10 09:04:57;;;;;;;31.58;3.33;;;10.50;99.90;;;;;;5059742;28;20193;-81
2023/12/10 09:07:22;;;;;;;27.03;2.77;;;10.60;97.20;;;;;;5060913;28;20185;-81
2023/12/10 09:09:51;;;;;;;28.30;3.27;;;10.60;93.20;;;;;;5060676;28;20189;-82
2023/12/10 09:12:17;;;;;;;32.53;4.35;;;10.60;93.50;;;;;;5059744;28;20162;-82
2023/12/10 09:14:42;;;;;;;33.50;3.50;;;10.60;96.10;;;;;;5059623;28;20185;-83
2023/12/10 09:17:08;;;;;;;27.57;3.50;;;10.60;95.80;;;;;;5060627;28;20161;-82
2023/12/10 09:19:34;;;;;;;35.50;3.43;;;10.60;95.60;;;;;;5060586;28;20547;-81
2023/12/10 09:21:59;;;;;;;35.57;4.10;;;10.70;95.30;;;;;;5060622;28;20172;-82
2023/12/10 09:24:26;;;;;;;28.37;3.30;;;10.70;93.30;;;;;;5060318;28;20491;-81
2023/12/10 09:26:56;;;;;;;31.13;4.30;;;10.70;94.20;;;;;;5042445;28;20515;-82
2023/12/10 09:29:22;;;;;;;30.00;4.05;;;10.70;92.90;;;;;;5042593;28;20176;-83
2023/12/10 09:31:51;;;;;;;25.23;2.73;;;10.70;91.10;;;;;;5060191;28;20161;-81
2023/12/10 09:34:17;;;;;;;33.33;3.47;;;10.80;88.70;;;;;;5060467;28;20430;-82
2023/12/10 09:36:42;;;;;;;26.33;3.23;;;10.80;91.70;;;;;;5059605;28;20165;-81
2023/12/10 09:39:08;;;;;;;28.30;3.97;;;10.80;91.60;;;;;;5042602;28;20170;-82
2023/12/10 09:41:34;;;;;;;27.92;3.20;;;10.80;91.00;;;;;;5059434;28;20162;-82
2023/12/10 09:44:00;;;;;;;29.00;3.00;;;10.80;91.50;;;;;;5060009;28;20665;-83
2023/12/10 09:46:28;;;;;;;31.13;3.60;;;10.70;91.40;;;;;;5059339;28;20692;-80
2023/12/10 09:48:54;;;;;;;27.38;3.25;;;10.80;95.20;;;;;;5059610;28;20183;-83
2023/12/10 09:51:20;;;;;;;28.25;3.83;;;10.70;96.40;;;;;;5059570;28;20249;-83
2023/12/10 09:53:46;;;;;;;25.67;2.80;;;10.80;95.40;;;;;;5058285;28;20205;-82
2023/12/10 09:56:11;;;;;;;29.73;3.10;;;10.80;97.90;;;;;;5059208;28;20515;-82
2023/12/10 09:58:37;;;;;;;30.30;3.60;;;10.90;97.60;;;;;;5060359;28;20162;-80
2023/12/10 10:01:06;;;;;;;30.13;4.03;;;11.00;92.90;;;;;;5060008;28;20188;-82
2023/12/10 10:03:35;;;;;;;31.52;2.75;;;11.10;92.00;;;;;;5059378;28;20157;-82
2023/12/10 10:06:01;;;;;;;29.50;3.45;;;11.00;92.20;;;;;;5059532;28;20181;-82
2023/12/10 10:08:27;;;;;;;29.60;3.80;;;11.00;90.20;;;;;;5059290;28;20193;-83
2023/12/10 10:10:52;;;;;;;28.00;3.80;;;11.10;91.10;;;;;;5061269;28;20229;-82
2023/12/10 10:13:18;;;;;;;25.30;2.30;;;11.20;88.20;;;;;;5059688;28;20169;-82
2023/12/10 10:15:43;;;;;;;25.47;2.80;;;11.20;88.20;;;;;;5060137;28;20208;-81
2023/12/10 10:18:10;;;;;;;24.67;3.10;;;11.20;81.10;;;;;;5060270;28;20188;-83
2023/12/10 10:20:38;;;;;;;24.48;3.30;;;11.30;82.80;;;;;;5058996;28;20165;-83
2023/12/10 10:23:04;;;;;;;22.67;2.15;;;11.30;87.00;;;;;;5041356;28;20181;-82
2023/12/10 10:25:30;;;;;;;30.65;3.58;;;11.30;82.10;;;;;;5041239;28;20224;-83
2023/12/10 10:27:56;;;;;;;32.80;4.40;;;11.20;82.40;;;;;;5059913;28;20176;-82
2023/12/10 10:30:22;;;;;;;29.70;3.40;;;11.10;85.90;;;;;;5057487;28;20404;-82
2023/12/10 10:32:48;;;;;;;24.75;3.30;;;11.10;90.10;;;;;;5056880;28;20297;-82
2023/12/10 10:35:14;;;;;;;25.27;3.10;;;11.10;90.60;;;;;;5056028;28;20791;-82
2023/12/10 10:37:42;;;;;;;24.23;2.70;;;11.10;93.40;;;;;;5056198;28;20247;-80
2023/12/10 10:40:08;;;;;;;27.95;3.45;;;11.10;95.10;;;;;;5037809;28;20422;-82
2023/12/10 10:42:34;;;;;;;31.40;3.38;;;11.10;95.20;;;;;;5055346;28;20184;-82
2023/12/10 10:45:00;;;;;;;29.83;2.80;;;11.10;95.40;;;;;;5054961;28;20192;-81
2023/12/10 10:47:27;;;;;;;26.00;3.07;;;11.00;97.30;;;;;;5056274;28;20176;-82
2023/12/10 10:50:02;;;;;;;33.35;3.35;;;11.00;95.60;;;;;;5055833;28;20165;-83
2023/12/10 10:52:31;;;;;;;28.80;3.50;;;11.00;96.90;;;;;;5057184;28;20156;-82
2023/12/10 10:54:58;;;;;;;29.60;4.60;;;11.00;98.10;;;;;;5056340;28;20189;-82
2023/12/10 11:00:00;;;;;;;28.35;3.58;;;11.00;99.60;;;;;;5346801;22;20256;-84
2023/12/10 11:02:25;;;;;;;23.40;2.87;;;11.10;99.30;;;;;;5277566;22;20259;-81
2023/12/10 11:04:51;;;;;;;28.93;4.10;;;11.10;99.90;;;;;;5054887;28;20443;-81
2023/12/10 11:07:21;;;;;;;27.30;3.70;;;11.20;99.60;;;;;;5054802;28;20231;-83
2023/12/10 11:10:01;;;;;;;27.15;3.67;;;11.40;99.90;;;;;;5036859;28;20546;-83
2023/12/10 11:12:48;;;;;;;34.53;4.07;;;11.40;99.80;;;;;;5054623;28;20195;-84
2023/12/10 11:15:17;;;;;;;33.28;4.13;;;11.60;99.10;;;;;;5037236;28;20221;-84
2023/12/10 11:17:54;;;;;;;27.35;2.80;;;11.60;96.70;;;;;;5054947;28;20165;-83
2023/12/10 11:20:29;;;;;;;26.52;3.85;;;11.70;97.70;;;;;;5037978;28;20674;-83
2023/12/10 11:22:55;;;;;;;28.33;3.50;;;11.60;98.70;;;;;;5036734;28;20198;-83
2023/12/10 11:25:21;;;;;;;28.47;4.10;;;11.60;93.90;;;;;;5054803;28;20228;-84
2023/12/10 11:27:47;;;;;;;27.70;3.72;;;11.50;94.90;;;;;;5054768;28;20223;-83
2023/12/10 11:30:13;;;;;;;29.27;3.40;;;11.50;93.10;;;;;;5054749;28;20541;-83
2023/12/10 11:32:39;;;;;;;26.97;3.40;;;11.50;95.40;;;;;;5055323;28;20164;-83
2023/12/10 11:35:04;;;;;;;30.00;2.90;;;11.50;97.20;;;;;;5054651;28;20457;-84
2023/12/10 11:37:31;;;;;;;33.03;3.00;;;11.40;96.20;;;;;;5054527;28;20490;-83
2023/12/10 11:39:56;;;;;;;29.10;3.10;;;11.40;97.00;;;;;;5054743;28;20432;-83
2023/12/10 11:42:22;;;;;;;24.60;2.70;;;11.40;97.70;;;;;;5054230;28;20338;-83
2023/12/10 11:44:48;;;;;;;26.80;2.73;;;11.40;95.70;;;;;;5054436;28;20192;-83
2023/12/10 11:47:13;;;;;;;27.13;3.37;;;11.50;93.60;;;;;;5054311;28;20238;-83
2023/12/10 11:49:39;;;;;;;25.47;3.27;;;11.50;91.90;;;;;;5054507;28;20244;-83
2023/12/10 11:52:08;;;;;;;26.17;3.07;;;11.60;96.40;;;;;;5054457;28;20157;-83
2023/12/10 11:54:39;;;;;;;24.77;3.08;;;11.60;89.70;;;;;;5036089;28;20616;-83
2023/12/10 11:57:05;;;;;;;31.83;3.72;;;11.70;93.50;;;;;;5054048;28;20256;-83
2023/12/10 11:59:31;;;;;;;25.45;3.70;;;11.70;92.80;;;;;;5036357;28;20239;-83
2023/12/10 12:01:56;;;;;;;33.60;3.80;;;11.70;91.40;;;;;;5053749;28;20169;-83
2023/12/10 12:04:27;;;;;;;31.97;4.10;;;11.70;94.10;;;;;;5053824;28;20220;-83
2023/12/10 12:06:53;;;;;;;28.13;3.47;;;11.70;92.10;;;;;;5053711;28;20168;-83
2023/12/10 12:09:20;;;;;;;30.03;4.57;;;11.70;93.50;;;;;;5053979;28;20169;-83
2023/12/10 12:11:48;;;;;;;23.42;3.10;;;11.70;92.10;;;;;;5035732;28;20172;-82
2023/12/10 12:14:15;;;;;;;27.55;3.22;;;11.70;92.80;;;;;;5053268;28;20608;-83
2023/12/10 12:16:41;;;;;;;31.35;5.05;;;11.80;94.20;;;;;;5036015;28;20173;-83
2023/12/10 12:19:10;;;;;;;32.90;3.90;;;11.80;92.80;;;;;;5053012;28;20599;-83
2023/12/10 12:21:38;;;;;;;31.00;4.05;;;11.80;93.70;;;;;;5035796;28;20412;-83
2023/12/10 12:24:04;;;;;;;26.38;3.50;;;11.70;95.80;;;;;;5053089;28;20196;-83
2023/12/10 12:26:30;;;;;;;29.50;2.80;;;11.70;95.40;;;;;;5053300;28;20168;-82
2023/12/10 12:28:55;;;;;;;38.23;3.90;;;11.70;95.80;;;;;;5053365;28;20765;-81
2023/12/10 12:31:21;;;;;;;27.93;3.50;;;11.80;96.10;;;;;;5053915;28;20168;-81
2023/12/10 12:33:50;;;;;;;26.37;2.90;;;11.80;94.70;;;;;;5053425;28;20549;-82
2023/12/10 12:36:16;;;;;;;32.70;4.60;;;11.70;95.30;;;;;;5053503;28;20252;-81